Time;durP1;ratioP1;P1;durP2;ratioP2;P2;SDS_P1;SDS_P2;PMS_P1;PMS_P2;Temp;Humidity;BMP_temperature;BMP_pressure;BME280_temperature;BME280_humidity;BME280_pressure;Samples;Min_cycle;Max_cycle;Signal;HPM_P1;HPM_P2
2022/12/14 00:00:38;;;;;;;62.50;30.05;;;;;;;-0.98;100.00;98751.84;5015513;28;20086;-69
2022/12/14 00:03:04;;;;;;;58.38;29.65;;;;;;;-0.94;100.00;98749.44;4999541;28;20081;-68
2022/12/14 00:05:29;;;;;;;58.83;28.85;;;;;;;-0.96;100.00;98746.13;5014970;28;20471;-68
2022/12/14 00:07:55;;;;;;;62.35;28.70;;;;;;;-0.95;100.00;98750.50;5015711;28;20029;-68
2022/12/14 00:10:20;;;;;;;57.83;28.45;;;;;;;-0.96;100.00;98752.41;4998057;28;20045;-69
2022/12/14 00:12:46;;;;;;;61.05;29.65;;;;;;;-0.95;100.00;98750.50;5016017;28;20030;-68
2022/12/14 00:15:11;;;;;;;58.88;27.98;;;;;;;-0.94;100.00;98752.16;5031603;28;20021;-69
2022/12/14 00:17:37;;;;;;;53.85;26.88;;;;;;;-0.96;100.00;98737.97;4991790;28;20025;-68
2022/12/14 00:20:02;;;;;;;58.90;28.00;;;;;;;-0.99;100.00;98738.50;5018712;28;20112;-69
2022/12/14 00:22:28;;;;;;;63.30;29.70;;;;;;;-0.99;100.00;98743.94;5018830;28;20068;-69
2022/12/14 00:24:53;;;;;;;58.17;28.70;;;;;;;-0.97;100.00;98748.03;5018706;28;20033;-69
2022/12/14 00:27:19;;;;;;;58.72;27.20;;;;;;;-0.96;100.00;98732.50;4983158;28;20034;-69
2022/12/14 00:29:44;;;;;;;60.28;28.55;;;;;;;-0.94;100.00;98725.72;4984033;28;20121;-68
2022/12/14 00:32:10;;;;;;;60.78;29.08;;;;;;;-0.96;100.00;98719.69;5006365;28;20030;-68
2022/12/14 00:34:35;;;;;;;57.17;28.05;;;;;;;-0.96;100.00;98716.16;5034697;28;20032;-69
2022/12/14 00:37:01;;;;;;;56.92;27.83;;;;;;;-0.97;100.00;98712.63;5002068;28;20072;-69
2022/12/14 00:39:26;;;;;;;59.55;28.13;;;;;;;-0.98;100.00;98718.31;5008779;28;20471;-68
2022/12/14 00:41:52;;;;;;;53.90;26.50;;;;;;;-0.96;100.00;98716.97;4998888;28;20038;-69
2022/12/14 00:44:17;;;;;;;56.60;27.92;;;;;;;-0.96;100.00;98716.97;4998742;28;20037;-68
2022/12/14 00:46:42;;;;;;;55.83;28.13;;;;;;;-0.98;100.00;98708.22;4998389;28;20026;-68
2022/12/14 00:49:09;;;;;;;54.65;27.63;;;;;;;-0.96;100.00;98721.63;4998679;28;20490;-68
2022/12/14 00:51:34;;;;;;;53.63;26.95;;;;;;;-0.98;100.00;98726.50;4998998;28;20033;-69
2022/12/14 00:54:00;;;;;;;61.50;28.48;;;;;;;-0.94;100.00;98724.91;5014764;28;20038;-69
2022/12/14 00:56:25;;;;;;;52.08;26.52;;;;;;;-0.98;100.00;98723.78;4982442;28;20037;-68
2022/12/14 00:58:51;;;;;;;57.15;27.33;;;;;;;-0.94;100.00;98722.19;4998665;28;20030;-69
2022/12/14 01:01:17;;;;;;;52.30;26.60;;;;;;;-0.97;100.00;98719.97;4998386;28;20033;-69
2022/12/14 01:03:42;;;;;;;55.17;27.38;;;;;;;-0.93;100.00;98715.63;4987609;28;20026;-69
2022/12/14 01:06:15;;;;;;;56.05;27.52;;;;;;;-0.95;100.00;98723.25;4982383;28;20112;-69
2022/12/14 01:08:40;;;;;;;65.38;27.52;;;;;;;-0.98;100.00;98735.47;5015259;28;20450;-68
2022/12/14 01:11:06;;;;;;;54.25;26.75;;;;;;;-0.97;100.00;98747.22;4998513;28;20064;-69
2022/12/14 01:13:32;;;;;;;59.30;27.92;;;;;;;-0.98;100.00;98746.38;4998655;28;20029;-68
2022/12/14 01:16:10;;;;;;;58.95;27.52;;;;;;;-0.97;100.00;98741.78;4966092;28;20044;-69
2022/12/14 01:18:36;;;;;;;53.72;26.50;;;;;;;-0.95;100.00;98745.03;5001700;28;20049;-69
2022/12/14 01:21:18;;;;;;;57.28;26.40;;;;;;;-0.97;100.00;98725.44;4986334;28;20030;-69
2022/12/14 01:23:44;;;;;;;55.10;27.55;;;;;;;-0.97;100.00;98728.16;5002980;28;20026;-68
2022/12/14 01:26:11;;;;;;;56.00;27.00;;;;;;;-0.97;100.00;98722.72;4989094;28;20137;-69
2022/12/14 01:28:36;;;;;;;57.00;27.13;;;;;;;-0.97;100.00;98720.78;5035198;28;20121;-68
2022/12/14 01:31:19;;;;;;;56.78;25.10;;;;;;;-0.97;100.00;98719.97;5027507;28;20038;-68
2022/12/14 01:33:44;;;;;;;63.40;28.40;;;;;;;-0.98;100.00;98701.97;5029555;28;20055;-69
2022/12/14 01:36:12;;;;;;;55.65;26.08;;;;;;;-0.98;100.00;98680.97;5007091;28;20439;-68
2022/12/14 01:38:38;;;;;;;53.13;25.95;;;;;;;-0.97;100.00;98692.72;5034584;28;20038;-69
2022/12/14 01:41:04;;;;;;;57.92;26.52;;;;;;;-0.96;100.00;98699.81;5001989;28;20044;-69
2022/12/14 01:43:50;;;;;;;53.25;25.73;;;;;;;-0.97;100.00;98701.72;5002213;28;20049;-68
2022/12/14 01:46:44;;;;;;;53.30;24.30;;;;;;;-0.96;100.00;98699.81;5002294;28;20084;-69
2022/12/14 01:49:22;;;;;;;55.50;25.83;;;;;;;-0.99;100.00;98694.88;5031178;28;20041;-69
2022/12/14 01:52:01;;;;;;;54.50;25.92;;;;;;;-0.97;100.00;98688.09;5046782;28;20049;-68
2022/12/14 01:54:27;;;;;;;57.17;26.58;;;;;;;-0.99;100.00;98697.63;5019106;28;20454;-69
2022/12/14 01:56:53;;;;;;;51.60;24.27;;;;;;;-0.97;100.00;98687.28;5001819;28;20030;-69
2022/12/14 01:59:22;;;;;;;48.95;24.10;;;;;;;-0.97;100.00;98687.28;4969173;28;20033;-69
2022/12/14 02:01:48;;;;;;;57.55;26.33;;;;;;;-0.93;100.00;98683.75;5001740;28;20042;-69
2022/12/14 02:04:13;;;;;;;50.88;23.63;;;;;;;-0.95;100.00;98682.38;5001457;28;20088;-69
2022/12/14 02:06:39;;;;;;;50.83;24.15;;;;;;;-0.95;100.00;98693.25;4969213;28;20045;-69
2022/12/14 02:09:07;;;;;;;58.00;26.15;;;;;;;-0.98;100.00;98701.97;5001518;28;20025;-69
2022/12/14 02:11:46;;;;;;;55.85;25.65;;;;;;;-0.97;100.00;98703.63;4985518;28;20038;-69
2022/12/14 02:14:11;;;;;;;49.45;24.77;;;;;;;-0.97;100.00;98698.19;4985386;28;20387;-69
2022/12/14 02:16:37;;;;;;;57.25;25.33;;;;;;;-0.97;100.00;98698.19;4998864;28;20025;-69
2022/12/14 02:19:02;;;;;;;45.05;23.33;;;;;;;-0.96;100.00;98688.91;5021230;28;20068;-68
2022/12/14 02:21:49;;;;;;;52.47;24.58;;;;;;;-0.95;100.00;98688.66;5021023;28;20033;-69
2022/12/14 02:25:00;;;;;;;47.83;23.05;;;;;;;-0.95;100.00;98679.63;5037418;28;20029;-68
2022/12/14 02:27:44;;;;;;;52.28;23.45;;;;;;;-0.92;100.00;98685.41;5008907;28;20503;-69
2022/12/14 02:30:09;;;;;;;47.42;22.88;;;;;;;-0.92;100.00;98673.66;5015919;28;20542;-69
2022/12/14 02:32:59;;;;;;;48.70;22.98;;;;;;;-0.89;100.00;98664.97;5031129;28;20084;-69
2022/12/14 02:35:42;;;;;;;48.63;23.10;;;;;;;-0.88;100.00;98666.63;5039025;28;20504;-68
2022/12/14 02:38:29;;;;;;;49.35;23.00;;;;;;;-0.91;100.00;98667.16;5048122;28;20046;-68
2022/12/14 02:41:16;;;;;;;45.45;23.02;;;;;;;-0.88;100.00;98677.50;5017159;28;20034;-69
2022/12/14 02:44:06;;;;;;;43.20;21.70;;;;;;;-0.88;100.00;98671.25;5017717;28;20117;-68
2022/12/14 02:46:56;;;;;;;45.60;22.63;;;;;;;-0.88;100.00;98669.34;5022015;28;20509;-68
2022/12/14 02:49:33;;;;;;;44.58;22.63;;;;;;;-0.87;100.00;98676.41;5003682;28;20385;-69
2022/12/14 02:52:22;;;;;;;42.78;22.08;;;;;;;-0.87;100.00;98670.97;5042872;28;20033;-69
2022/12/14 02:54:56;;;;;;;42.60;21.75;;;;;;;-0.86;100.00;98686.25;5032603;28;20084;-69
2022/12/14 02:57:25;;;;;;;40.33;20.77;;;;;;;-0.85;100.00;98685.16;5010375;28;20154;-69
2022/12/14 02:59:53;;;;;;;40.25;21.95;;;;;;;-0.87;100.00;98684.59;5036660;28;20053;-69
2022/12/14 03:02:18;;;;;;;41.60;21.08;;;;;;;-0.85;100.00;98678.91;5018393;28;20026;-68
2022/12/14 03:04:47;;;;;;;40.80;22.13;;;;;;;-0.85;100.00;98689.78;5013729;28;20033;-69
2022/12/14 03:07:31;;;;;;;41.08;22.45;;;;;;;-0.82;100.00;98683.81;5030335;28;20100;-69
2022/12/14 03:10:05;;;;;;;;;;;;;;;-0.83;100.00;98690.38;5018475;28;20044;-68
2022/12/14 03:12:31;;;;;;;45.78;21.10;;;;;;;-0.84;100.00;98703.16;5017900;28;19909;-68
2022/12/14 03:14:56;;;;;;;39.78;20.75;;;;;;;-0.86;100.00;98708.06;5029000;28;20025;-69
2022/12/14 03:17:26;;;;;;;42.03;21.58;;;;;;;-0.83;100.00;98698.53;5036487;28;20037;-68
2022/12/14 03:19:53;;;;;;;41.67;20.73;;;;;;;-0.81;100.00;98693.63;5036482;28;20029;-68
2022/12/14 03:22:27;;;;;;;41.58;21.52;;;;;;;-0.84;100.00;98694.97;5020054;28;20100;-69
2022/12/14 03:24:57;;;;;;;45.75;23.33;;;;;;;-0.83;100.00;98693.91;4987281;28;20025;-68
2022/12/14 03:27:24;;;;;;;41.90;21.23;;;;;;;-0.81;100.00;98696.34;4990581;28;20071;-69
2022/12/14 03:30:10;;;;;;;42.10;20.45;;;;;;;-0.82;100.00;98700.16;5044904;28;20115;-69
2022/12/14 03:32:38;;;;;;;43.67;21.65;;;;;;;-0.83;100.00;98698.53;4993885;28;20056;-68
2022/12/14 03:35:10;;;;;;;39.53;20.38;;;;;;;-0.84;100.00;98689.50;5000356;28;20036;-68
2022/12/14 03:38:01;;;;;;;41.08;21.33;;;;;;;-0.84;100.00;98697.69;5014345;28;20046;-68
2022/12/14 03:40:33;;;;;;;41.80;21.88;;;;;;;-0.85;100.00;98701.50;5040579;28;20041;-68
2022/12/14 03:43:28;;;;;;;31.42;17.67;;;;;;;-0.85;100.00;98706.97;5019690;28;20106;-69
2022/12/14 03:45:59;;;;;;;44.10;22.10;;;;;;;-0.85;100.00;98701.50;5004640;28;20040;-68
2022/12/14 03:48:32;;;;;;;39.65;21.80;;;;;;;-0.85;100.00;98701.50;5019414;28;20041;-68
2022/12/14 03:51:03;;;;;;;40.35;21.00;;;;;;;-0.86;100.00;98696.31;4999581;28;20089;-68
2022/12/14 03:53:34;;;;;;;39.10;20.63;;;;;;;-0.86;100.00;98693.59;5015944;28;20030;-69
2022/12/14 03:55:59;;;;;;;45.97;22.75;;;;;;;-0.84;100.00;98702.31;5016872;28;20536;-68
2022/12/14 03:58:35;;;;;;;45.47;23.45;;;;;;;-0.87;100.00;98698.22;5017218;28;20037;-69
2022/12/14 04:01:18;;;;;;;46.88;23.90;;;;;;;-0.87;100.00;98697.41;4982783;28;20061;-68
2022/12/14 04:04:00;;;;;;;49.08;24.27;;;;;;;-0.88;100.00;98701.22;4988326;28;20042;-69
2022/12/14 04:06:51;;;;;;;44.40;23.05;;;;;;;-0.88;100.00;98702.03;5015897;28;20590;-68
2022/12/14 04:09:16;;;;;;;46.33;24.35;;;;;;;-0.91;100.00;98697.13;5027776;28;20079;-69
2022/12/14 04:20:18;;;;;;;45.08;23.50;;;;;;;-0.86;100.00;98686.25;5010045;28;20107;-69
2022/12/14 04:26:03;;;;;;;43.53;22.48;;;;;;;-0.86;100.00;98693.59;4999563;28;20030;-68
2022/12/14 04:26:05;;;;;;;46.40;24.20;;;;;;;-0.88;100.00;98699.31;5007454;28;20490;-69
2022/12/14 04:31:22;;;;;;;49.13;24.83;;;;;;;-0.91;100.00;98710.75;5006094;28;20080;-68
2022/12/14 04:33:52;;;;;;;44.53;23.38;;;;;;;-0.92;100.00;98717.25;4999171;28;20033;-68
2022/12/14 04:36:30;;;;;;;51.90;26.55;;;;;;;-0.93;100.00;98715.63;4998751;28;20054;-68
2022/12/14 04:39:06;;;;;;;53.53;25.40;;;;;;;-0.91;100.00;98722.47;4999274;28;20044;-69
2022/12/14 04:41:38;;;;;;;60.42;27.73;;;;;;;-0.93;100.00;98731.97;4966636;28;20022;-69
2022/12/14 04:44:11;;;;;;;56.60;25.92;;;;;;;-0.93;100.00;98731.97;5015277;28;20533;-69
2022/12/14 04:46:37;;;;;;;52.88;26.63;;;;;;;-0.91;100.00;98746.19;4998881;28;20083;-69
2022/12/14 04:49:18;;;;;;;54.47;26.58;;;;;;;-0.90;100.00;98751.34;5028789;28;20027;-68
2022/12/14 04:52:12;;;;;;;59.38;27.42;;;;;;;-0.90;100.00;98745.09;4982025;28;20370;-68
2022/12/14 04:54:56;;;;;;;51.53;25.55;;;;;;;-0.89;100.00;98749.47;5006888;28;20042;-69
2022/12/14 04:57:41;;;;;;;51.85;26.58;;;;;;;-0.89;100.00;98754.91;5016220;28;20502;-69
2022/12/14 05:00:07;;;;;;;49.22;25.52;;;;;;;-0.90;100.00;98756.81;5023520;28;20030;-68
2022/12/14 05:03:05;;;;;;;56.63;27.42;;;;;;;-0.89;100.00;98746.75;5026669;28;20037;-69
2022/12/14 05:05:54;;;;;;;50.13;25.33;;;;;;;-0.88;100.00;98742.94;4998534;28;20069;-68
2022/12/14 05:08:28;;;;;;;51.00;24.95;;;;;;;-0.89;100.00;98757.66;4982382;28;20061;-69
2022/12/14 05:11:06;;;;;;;46.67;25.00;;;;;;;-0.88;100.00;98774.81;5001746;28;20052;-69
2022/12/14 05:13:41;;;;;;;45.10;23.60;;;;;;;-0.89;100.00;98779.44;5007076;28;20100;-69
2022/12/14 05:16:07;;;;;;;49.30;24.55;;;;;;;-0.90;100.00;98775.88;4992485;28;20041;-68
2022/12/14 05:18:33;;;;;;;45.50;24.38;;;;;;;-0.89;100.00;98776.72;5018164;28;20037;-69
2022/12/14 05:20:59;;;;;;;45.80;24.27;;;;;;;-0.90;100.00;98767.69;5006220;28;20022;-69
2022/12/14 05:23:24;;;;;;;49.70;26.13;;;;;;;-0.88;100.00;98770.19;4982206;28;20486;-68
2022/12/14 05:25:50;;;;;;;53.35;27.17;;;;;;;-0.88;100.00;98758.47;4998457;28;20026;-68
2022/12/14 05:28:15;;;;;;;55.15;27.35;;;;;;;-0.88;100.00;98764.72;5038365;28;20041;-68
2022/12/14 05:30:41;;;;;;;50.58;26.83;;;;;;;-0.88;100.00;98783.00;5030938;28;20025;-69
2022/12/14 05:33:18;;;;;;;51.72;26.75;;;;;;;-0.89;100.00;98782.19;4998493;28;20494;-69
2022/12/14 05:35:44;;;;;;;55.35;27.02;;;;;;;-0.92;100.00;98772.63;4999510;28;20040;-69
2022/12/14 05:38:09;;;;;;;60.20;29.23;;;;;;;-0.88;100.00;98759.28;4982049;28;20045;-68
2022/12/14 05:40:35;;;;;;;57.53;28.35;;;;;;;-0.92;100.00;98756.25;4992913;28;20022;-69
2022/12/14 05:43:09;;;;;;;56.10;27.58;;;;;;;-0.90;100.00;98728.72;5044826;28;20145;-69
2022/12/14 05:45:35;;;;;;;54.75;27.63;;;;;;;-0.89;100.00;98741.28;5034647;28;20371;-69
2022/12/14 05:48:00;;;;;;;56.20;28.30;;;;;;;-0.92;100.00;98745.38;5004623;28;20085;-69
2022/12/14 05:50:26;;;;;;;53.38;28.02;;;;;;;-0.91;100.00;98759.81;4998317;28;20029;-68
2022/12/14 05:52:51;;;;;;;51.20;27.25;;;;;;;-0.93;100.00;98765.50;4997929;28;20550;-69
2022/12/14 05:55:17;;;;;;;52.58;26.73;;;;;;;-0.94;100.00;98769.31;5020856;28;20026;-68
2022/12/14 05:57:42;;;;;;;53.55;27.75;;;;;;;-0.94;100.00;98774.78;5015980;28;20496;-69
2022/12/14 06:00:08;;;;;;;53.90;27.70;;;;;;;-0.94;100.00;98773.97;5033787;28;20033;-68
2022/12/14 06:02:34;;;;;;;50.00;26.55;;;;;;;-0.93;100.00;98770.13;5014339;28;20030;-68
2022/12/14 06:04:59;;;;;;;49.75;25.92;;;;;;;-0.93;100.00;98786.50;5051063;28;20417;-69
2022/12/14 06:07:25;;;;;;;56.83;29.10;;;;;;;-0.93;100.00;98795.47;5035760;28;20029;-69
2022/12/14 06:09:50;;;;;;;55.83;28.15;;;;;;;-0.92;100.00;98796.28;5021534;28;20086;-68
2022/12/14 06:12:16;;;;;;;53.45;27.63;;;;;;;-0.93;100.00;98791.94;5035978;28;20029;-68
2022/12/14 06:14:42;;;;;;;53.92;27.50;;;;;;;-0.93;100.00;98797.38;5011065;28;20017;-68
2022/12/14 06:17:07;;;;;;;56.95;28.05;;;;;;;-0.94;100.00;98799.31;5026268;28;20042;-69
2022/12/14 06:19:32;;;;;;;56.15;29.48;;;;;;;-0.94;100.00;98790.31;5001545;28;20103;-69
2022/12/14 06:21:58;;;;;;;57.40;27.92;;;;;;;-0.91;100.00;98776.16;5017636;28;20030;-69
2022/12/14 06:24:23;;;;;;;55.33;26.75;;;;;;;-0.91;100.00;98766.06;5017677;28;20498;-69
2022/12/14 06:26:49;;;;;;;54.17;27.08;;;;;;;-0.92;100.00;98759.00;5005751;28;20025;-69
2022/12/14 06:29:16;;;;;;;55.80;26.65;;;;;;;-0.93;100.00;98776.41;5027330;28;20037;-69
2022/12/14 06:31:42;;;;;;;58.67;28.30;;;;;;;-0.92;100.00;98772.63;5028376;28;20026;-69
2022/12/14 06:34:07;;;;;;;59.40;29.95;;;;;;;-0.93;100.00;98781.84;5020789;28;20029;-68
2022/12/14 06:36:34;;;;;;;54.58;26.98;;;;;;;-0.89;100.00;98771.28;5033681;28;20410;-68
2022/12/14 06:39:02;;;;;;;60.40;29.15;;;;;;;-0.93;100.00;98768.22;5001251;28;20029;-68
2022/12/14 06:41:27;;;;;;;59.45;27.83;;;;;;;-0.93;100.00;98770.94;5001171;28;20038;-68
2022/12/14 06:43:53;;;;;;;59.50;28.67;;;;;;;-0.91;100.00;98770.69;5001192;28;20079;-69
2022/12/14 06:46:20;;;;;;;60.83;27.50;;;;;;;-0.92;100.00;98755.41;5000548;28;20363;-69
2022/12/14 06:48:53;;;;;;;61.28;28.73;;;;;;;-0.92;100.00;98760.88;4985008;28;20045;-69
2022/12/14 06:51:19;;;;;;;62.83;28.60;;;;;;;-0.91;100.00;98763.34;4985957;28;20089;-69
2022/12/14 06:53:45;;;;;;;57.92;26.88;;;;;;;-0.93;100.00;98761.97;5000837;28;20026;-69
2022/12/14 06:56:15;;;;;;;62.55;27.55;;;;;;;-0.91;100.00;98767.97;5018305;28;20037;-68
2022/12/14 06:58:40;;;;;;;57.38;27.42;;;;;;;-0.93;100.00;98787.31;5045766;28;20181;-69
2022/12/14 07:01:14;;;;;;;59.97;27.90;;;;;;;-0.90;100.00;98796.88;5020033;28;20026;-68
2022/12/14 07:03:40;;;;;;;63.25;28.77;;;;;;;-0.88;100.00;98807.53;5025587;28;20602;-68
2022/12/14 07:06:06;;;;;;;61.08;28.85;;;;;;;-0.89;100.00;98823.06;5016053;28;20026;-68
2022/12/14 07:08:33;;;;;;;56.05;26.70;;;;;;;-0.89;100.00;98820.34;5029338;28;20032;-69
2022/12/14 07:11:06;;;;;;;60.35;27.65;;;;;;;-0.90;100.00;98821.41;5003943;28;20084;-69
2022/12/14 07:13:32;;;;;;;56.47;27.55;;;;;;;-0.91;100.00;98808.84;5008016;28;20033;-69
2022/12/14 07:15:57;;;;;;;60.50;28.13;;;;;;;-0.87;100.00;98809.97;5016065;28;20034;-68
2022/12/14 07:18:23;;;;;;;54.92;25.67;;;;;;;-0.90;100.00;98818.66;5016637;28;20026;-68
2022/12/14 07:20:58;;;;;;;60.10;28.20;;;;;;;-0.87;100.00;98822.78;4968243;28;20474;-69
2022/12/14 07:23:24;;;;;;;60.53;29.27;;;;;;;-0.85;100.00;98821.44;5016582;28;20041;-68
2022/12/14 07:25:50;;;;;;;56.90;27.50;;;;;;;-0.86;100.00;98827.13;4997038;28;20026;-69
2022/12/14 07:28:16;;;;;;;56.40;28.50;;;;;;;-0.85;100.00;98826.88;5029350;28;20088;-69
2022/12/14 07:30:41;;;;;;;60.75;29.10;;;;;;;-0.85;100.00;98829.63;5016107;28;20034;-69
2022/12/14 07:33:07;;;;;;;59.05;27.92;;;;;;;-0.85;100.00;98826.88;5031785;28;20037;-69
2022/12/14 07:35:32;;;;;;;59.00;28.13;;;;;;;-0.85;100.00;98821.44;5019423;28;20037;-69
2022/12/14 07:37:58;;;;;;;61.80;29.13;;;;;;;-0.86;100.00;98818.97;5035993;28;20068;-69
2022/12/14 07:40:23;;;;;;;60.55;29.52;;;;;;;-0.86;100.00;98833.44;5032000;28;20371;-68
2022/12/14 07:42:49;;;;;;;65.65;30.88;;;;;;;-0.84;100.00;98839.44;4980509;28;20037;-68
2022/12/14 07:45:15;;;;;;;62.38;30.27;;;;;;;-0.83;100.00;98837.53;4983448;28;20029;-69
2022/12/14 07:47:40;;;;;;;66.03;31.13;;;;;;;-0.83;100.00;98841.09;4998383;28;20042;-68
2022/12/14 07:50:06;;;;;;;63.63;31.20;;;;;;;-0.80;100.00;98856.09;5016303;28;20030;-69
2022/12/14 07:52:31;;;;;;;63.78;30.75;;;;;;;-0.80;100.00;98854.19;4983327;28;20125;-68
2022/12/14 07:54:57;;;;;;;62.17;30.02;;;;;;;-0.83;100.00;98851.19;4999358;28;20029;-68
2022/12/14 07:57:22;;;;;;;60.08;28.92;;;;;;;-0.82;100.00;98844.63;5015842;28;20037;-68
2022/12/14 07:59:48;;;;;;;73.75;33.22;;;;;;;-0.84;100.00;98854.97;4999705;28;20045;-69
2022/12/14 08:02:13;;;;;;;61.83;30.90;;;;;;;-0.84;100.00;98860.41;4999506;28;20109;-69
2022/12/14 08:04:39;;;;;;;62.45;29.08;;;;;;;-0.85;100.00;98875.94;5008128;28;20025;-68
2022/12/14 08:07:04;;;;;;;63.13;29.23;;;;;;;-0.84;100.00;98882.22;5035539;28;20116;-68
2022/12/14 08:09:30;;;;;;;61.70;28.63;;;;;;;-0.85;100.00;98875.94;5009021;28;20041;-69
2022/12/14 08:11:56;;;;;;;63.83;30.20;;;;;;;-0.83;100.00;98881.16;5015699;28;20034;-68
2022/12/14 08:14:21;;;;;;;59.63;29.50;;;;;;;-0.84;100.00;98877.59;4998963;28;20033;-68
2022/12/14 08:16:48;;;;;;;60.72;29.60;;;;;;;-0.83;100.00;98879.25;4999238;28;20030;-68
2022/12/14 08:19:15;;;;;;;63.80;30.30;;;;;;;-0.85;100.00;98881.41;4999548;28;20045;-69
2022/12/14 08:21:40;;;;;;;65.38;30.45;;;;;;;-0.83;100.00;98875.72;4999330;28;20109;-68
2022/12/14 08:24:06;;;;;;;65.43;29.77;;;;;;;-0.83;100.00;98872.97;4998614;28;20068;-68
2022/12/14 08:26:32;;;;;;;63.65;31.05;;;;;;;-0.82;100.00;98858.25;5008290;28;20037;-69
2022/12/14 08:28:57;;;;;;;59.38;28.35;;;;;;;-0.81;100.00;98855.25;5001233;28;20516;-68
2022/12/14 08:31:24;;;;;;;57.40;27.50;;;;;;;-0.81;100.00;98849.00;5031309;28;20038;-69
2022/12/14 08:33:50;;;;;;;58.42;27.30;;;;;;;-0.81;100.00;98847.06;5031662;28;20025;-69
2022/12/14 08:36:26;;;;;;;60.42;29.17;;;;;;;-0.81;100.00;98863.44;5046761;28;20107;-69
2022/12/14 08:38:53;;;;;;;60.67;27.88;;;;;;;-0.79;100.00;98857.75;5019899;28;20033;-68
2022/12/14 08:41:19;;;;;;;64.47;29.27;;;;;;;-0.79;100.00;98877.63;4985990;28;20033;-68
2022/12/14 08:43:48;;;;;;;62.42;28.63;;;;;;;-0.79;100.00;98879.53;5007745;28;20041;-69
2022/12/14 08:46:13;;;;;;;57.42;27.48;;;;;;;-0.78;100.00;98879.31;4997428;28;20053;-68
2022/12/14 08:48:39;;;;;;;55.75;26.83;;;;;;;-0.79;100.00;98885.81;4998695;28;20076;-69
2022/12/14 08:51:07;;;;;;;57.60;26.35;;;;;;;-0.78;100.00;98902.97;4982462;28;20025;-68
2022/12/14 08:53:32;;;;;;;53.15;27.08;;;;;;;-0.74;100.00;98901.41;4979939;28;20023;-68
2022/12/14 08:55:58;;;;;;;57.28;26.55;;;;;;;-0.73;100.00;98889.41;5017211;28;20460;-68
2022/12/14 08:58:24;;;;;;;57.08;27.40;;;;;;;-0.75;100.00;98892.41;5021549;28;20109;-68
2022/12/14 09:00:49;;;;;;;57.97;27.27;;;;;;;-0.72;100.00;98902.78;4998222;28;20479;-69
2022/12/14 09:03:15;;;;;;;57.83;26.60;;;;;;;-0.73;100.00;98892.94;4998465;28;20101;-68
2022/12/14 09:05:40;;;;;;;57.33;27.70;;;;;;;-0.73;100.00;98903.84;5026678;28;20048;-69
2022/12/14 09:08:06;;;;;;;54.13;26.90;;;;;;;-0.74;100.00;98915.84;4982583;28;20033;-68
2022/12/14 09:10:31;;;;;;;60.95;27.92;;;;;;;-0.74;100.00;98912.31;4998567;28;20034;-68
2022/12/14 09:12:57;;;;;;;63.10;27.85;;;;;;;-0.76;100.00;98907.09;4998549;28;20026;-70
2022/12/14 09:15:23;;;;;;;56.85;26.00;;;;;;;-0.71;100.00;98919.97;5030376;28;20037;-68
2022/12/14 09:17:49;;;;;;;56.03;26.83;;;;;;;-0.71;100.00;98919.97;5034699;28;20029;-68
2022/12/14 09:20:15;;;;;;;59.35;28.45;;;;;;;-0.72;100.00;98919.16;5001933;28;20121;-68
2022/12/14 09:22:40;;;;;;;57.80;28.00;;;;;;;-0.69;100.00;98918.63;5034691;28;20033;-69
2022/12/14 09:25:07;;;;;;;58.38;28.40;;;;;;;-0.68;100.00;98922.97;5013307;28;20030;-68
2022/12/14 09:27:32;;;;;;;58.22;28.33;;;;;;;-0.68;100.00;98936.63;4998724;28;20034;-68
2022/12/14 09:29:58;;;;;;;55.78;27.70;;;;;;;-0.65;100.00;98940.72;5014519;28;20030;-69
2022/12/14 09:32:23;;;;;;;56.78;28.85;;;;;;;-0.64;100.00;98934.22;4998273;28;20041;-68
2022/12/14 09:34:49;;;;;;;56.05;27.05;;;;;;;-0.60;100.00;98932.59;4982884;28;20375;-68
2022/12/14 09:37:14;;;;;;;58.60;27.90;;;;;;;-0.59;100.00;98927.97;5030995;28;20050;-68
2022/12/14 09:39:40;;;;;;;54.33;26.92;;;;;;;-0.58;100.00;98929.63;4993305;28;20060;-68
2022/12/14 09:42:41;;;;;;;62.38;29.60;;;;;;;-0.56;100.00;98927.44;5001974;28;20037;-69
2022/12/14 09:45:17;;;;;;;54.58;26.85;;;;;;;-0.54;100.00;98914.38;5014500;28;20058;-69
2022/12/14 09:48:06;;;;;;;58.75;30.02;;;;;;;-0.51;100.00;98927.50;5030141;28;20035;-68
2022/12/14 09:50:32;;;;;;;61.08;28.60;;;;;;;-0.43;100.00;98921.56;5038157;28;20036;-68
2022/12/14 09:53:02;;;;;;;58.72;28.80;;;;;;;-0.42;100.00;98927.84;5018756;28;20490;-68
2022/12/14 09:55:36;;;;;;;61.17;28.63;;;;;;;-0.41;100.00;98930.31;5024852;28;20033;-68
2022/12/14 09:58:11;;;;;;;59.45;29.25;;;;;;;-0.35;100.00;98939.34;5001725;28;20037;-69
2022/12/14 10:00:42;;;;;;;57.55;27.35;;;;;;;-0.33;100.00;98939.94;5037645;28;20233;-69
2022/12/14 10:04:04;;;;;;;57.30;26.92;;;;;;;-0.31;100.00;98940.47;5002572;28;20059;-69
2022/12/14 10:06:50;;;;;;;56.33;27.45;;;;;;;-0.26;100.00;98943.25;5027270;28;20060;-68
2022/12/14 10:09:19;;;;;;;50.15;26.10;;;;;;;-0.24;100.00;98930.16;5030725;28;20046;-68
2022/12/14 10:12:19;;;;;;;52.22;26.33;;;;;;;-0.21;100.00;98934.28;5019086;28;20056;-69
2022/12/14 10:14:54;;;;;;;53.03;27.15;;;;;;;-0.19;100.00;98935.66;5001011;28;20046;-68
2022/12/14 10:17:32;;;;;;;49.80;27.42;;;;;;;-0.17;100.00;98946.31;5017095;28;20030;-68
2022/12/14 10:20:04;;;;;;;53.35;27.38;;;;;;;-0.12;100.00;98958.06;5050879;28;20041;-69
2022/12/14 10:22:32;;;;;;;49.45;25.45;;;;;;;-0.08;100.00;98961.13;5017922;28;20034;-68
2022/12/14 10:25:20;;;;;;;50.95;27.00;;;;;;;-0.05;100.00;98960.59;5001341;28;20483;-68
2022/12/14 10:27:49;;;;;;;49.83;25.70;;;;;;;-0.01;100.00;98950.78;5017904;28;20210;-69
2022/12/14 10:30:16;;;;;;;50.15;26.35;;;;;;;0.03;100.00;98946.47;4984938;28;20034;-69
2022/12/14 10:32:51;;;;;;;48.33;25.27;;;;;;;0.05;100.00;98948.91;5001520;28;20034;-69
2022/12/14 10:35:42;;;;;;;49.90;25.55;;;;;;;0.10;100.00;98938.84;5001688;28;20105;-69
2022/12/14 10:38:38;;;;;;;50.78;24.42;;;;;;;0.18;100.00;98938.34;4970113;28;20068;-68
2022/12/14 10:41:10;;;;;;;46.80;23.38;;;;;;;0.21;100.00;98932.34;5009236;28;20104;-68
2022/12/14 10:43:45;;;;;;;47.75;23.95;;;;;;;0.26;100.00;98937.03;4989029;28;20034;-68
2022/12/14 10:46:16;;;;;;;44.15;23.33;;;;;;;0.30;100.00;98929.13;5000542;28;20026;-68
2022/12/14 10:48:55;;;;;;;46.10;24.17;;;;;;;0.34;100.00;98930.25;5017966;28;20037;-69
2022/12/14 10:51:27;;;;;;;48.13;22.88;;;;;;;0.36;100.00;98928.91;5001929;28;20083;-69
2022/12/14 10:54:09;;;;;;;42.35;21.48;;;;;;;0.42;100.00;98927.84;5002941;28;20021;-68
2022/12/14 10:56:35;;;;;;;47.53;22.97;;;;;;;0.43;100.00;98923.19;4993037;28;20395;-68
2022/12/14 10:59:16;;;;;;;39.40;20.45;;;;;;;0.44;100.00;98928.38;4988988;28;20030;-68
2022/12/14 11:01:41;;;;;;;41.88;21.15;;;;;;;0.44;100.00;98909.25;5026509;28;20128;-68
2022/12/14 11:04:24;;;;;;;40.92;20.50;;;;;;;0.50;100.00;98907.34;5006247;28;20060;-69
2022/12/14 11:06:49;;;;;;;45.45;23.58;;;;;;;0.50;100.00;98901.06;5037429;28;20084;-69
2022/12/14 11:09:19;;;;;;;37.97;19.77;;;;;;;0.49;100.00;98903.00;5007209;28;20033;-68
2022/12/14 11:11:45;;;;;;;38.15;18.77;;;;;;;0.53;100.00;98919.66;5010083;28;20033;-68
2022/12/14 11:14:14;;;;;;;39.65;20.00;;;;;;;0.54;100.00;98911.22;5005718;28;20033;-68
2022/12/14 11:16:40;;;;;;;37.08;19.00;;;;;;;0.54;100.00;98913.13;5021179;28;20044;-69
2022/12/14 11:19:17;;;;;;;38.40;18.73;;;;;;;0.55;100.00;98915.56;5005787;28;20491;-68
2022/12/14 11:21:42;;;;;;;36.70;17.95;;;;;;;0.54;100.00;98924.88;5022388;28;20084;-68
2022/12/14 11:24:22;;;;;;;36.22;19.08;;;;;;;0.55;100.00;98904.66;5003840;28;20038;-68
2022/12/14 11:26:47;;;;;;;38.75;18.00;;;;;;;0.57;100.00;98910.66;5007670;28;20115;-69
2022/12/14 11:29:28;;;;;;;36.88;18.95;;;;;;;0.58;100.00;98914.22;4969329;28;20030;-69
2022/12/14 11:31:54;;;;;;;33.33;17.13;;;;;;;0.59;100.00;98911.22;4986693;28;20038;-68
2022/12/14 11:34:39;;;;;;;32.47;17.27;;;;;;;0.63;100.00;98911.50;5000393;28;20356;-69
2022/12/14 11:37:20;;;;;;;29.67;16.10;;;;;;;0.61;100.00;98919.16;5021075;28;20065;-69